LPCSLECO

Guest
Details From LPCS - CASCAIS
To LECO - A Coruna
Flight Number -
Tags generated
Created
Modified
Stats Distance 284 nm / 526 km
Max Altitude 34,000 ft / 10,363 m
Waypoints 4
Social Downloads 0
Likes 0
Share VATSIM

Download

Looking for another format? Having issues loading an existing format? Contact us
Advertisement - Login to hide

Notes

Basic altitude profile: - Ascent Rate: 1800ft/min - Ascent Speed: 280kts - Cruise Altitude: 31000ft - Cruise Speed: 420kts - Descent Rate: 1800ft/min - Descent Speed: 280kts Options: - Use NATs: yes - Use PACOTS: yes - Use low airways: yes - Use high airways: yes

Route

LPCS TERVA UN866 AGADO LECO

ID Type Via Altitude Latitude Longitude Leg Dist Tot Dist Heading (true) Name
O LPCS APT - 0 ft / 0 m 38.72518˚ -9.35526˚ - 0 nm - CASCAIS
TERVA FIX - 34,000 ft / 10,363 m 40.41667˚ -9.59111˚ 102 nm 102 nm 354° / 354° -
AGADO FIX UN866 (AWY-HI) 27,500 ft / 8,382 m 41.87288˚ -8.92669˚ 92 nm 194 nm 19° / 19° -
O LECO APT - 0 ft / 0 m 43.30226˚ -8.37709˚ 89 nm 283 nm 16° / 16° A Coruna

Altitude Profile

Weather

Temperature
Clouds and Precipitation
Forecast for 2017-02-20 12:00 UTC. Updated an hour ago
Winds

LPCS

Details ICAO LPCS
Name CASCAIS
Region Portugal
Timezone Europe/Lisbon (UTC+0.0)
Stats Elevation 326 ft / 99 m (AMSL)
Location 38.725175° -9.355256°
Runways 1
Magnetic Variation 2.538° W

METAR

LPCS 200800Z 03009KT CAVOK 12/05 Q1022

Decode

TAF

Not found

Departure Runways

ID Width Length Bearing (true) Bearing (mag) Surface Threshold Offset Overrun Length
17 98 ft / 30 m 5,664 ft / 1,726 m 164.14° 166.68° Asphalt 354 ft / 108 m 0 ft / 0 m
35 98 ft / 30 m 5,664 ft / 1,726 m 344.14° 346.68° Asphalt 574 ft / 175 m 0 ft / 0 m

LECO

Details ICAO LECO (LCG)
Name A Coruna
Region Spain
Timezone Europe/Madrid (UTC+1.0)
Stats Elevation 323 ft / 98 m (AMSL)
Location 43.302264° -8.377086°
Runways 1
Magnetic Variation 2.501° W

METAR

LECO 200800Z 00000KT 0200 R21/1800D R03/0300D PRFG FEW040 04/04 Q1029 TEMPO 0600 BCFG

Decode

TAF

TAF LECO 200800Z 2009/2109 VRB04KT 9999 SCT030 TX15/2015Z TN06/2105Z PROB40 TEMPO 2009/2010 1500 BCFG PROB30 TEMPO 2009/2010 0650 BCFG BKN002 TEMPO 2012/2018 02010KT PROB40 TEMPO 2100/2109 1500 BCFG

Decode

Destination Runways

ID Width Length Bearing (true) Bearing (mag) Surface Threshold Offset Overrun Length
04 148 ft / 45 m 6,371 ft / 1,942 m 30.94° 33.44° Asphalt 0 ft / 0 m 194 ft / 59 m
22 148 ft / 45 m 6,371 ft / 1,942 m 210.94° 213.44° Asphalt 0 ft / 0 m 203 ft / 62 m

Approach Navaids

Runway Type Ident Frequency Range Bearing (true) Bearing (mag) Slope Elevation
22 Localiser LCO 109.90 MHz 18 nm / 33 km 210.89° 213.39° - 329 ft / 100 m (AMSL)
22 Glidescope LCO 109.90 MHz 10 nm / 19 km 210.94° 213.44° 3.00° 323 ft / 98 m (AMSL)
22 DME LCO 109.90 MHz 18 nm / 33 km - - - 293 ft / 89 m (AMSL)

Popular Alternatives